sensor_id;sensor_type;location;lat;lon;timestamp;temperature;humidity
76211;DHT22;65003;49.518;11.280;2023-04-01T00:01:32;9.70;90.20
76211;DHT22;65003;49.518;11.280;2023-04-01T00:03:58;8.70;90.00
76211;DHT22;65003;49.518;11.280;2023-04-01T00:06:25;9.70;90.40
76211;DHT22;65003;49.518;11.280;2023-04-01T00:08:52;9.80;90.30
76211;DHT22;65003;49.518;11.280;2023-04-01T00:11:18;9.80;90.20
76211;DHT22;65003;49.518;11.280;2023-04-01T00:13:45;9.80;90.20
76211;DHT22;65003;49.518;11.280;2023-04-01T00:16:12;9.80;90.10
76211;DHT22;65003;49.518;11.280;2023-04-01T00:18:38;9.80;90.00
76211;DHT22;65003;49.518;11.280;2023-04-01T00:21:05;9.90;90.00
76211;DHT22;65003;49.518;11.280;2023-04-01T00:23:32;9.90;90.10
76211;DHT22;65003;49.518;11.280;2023-04-01T00:26:01;9.80;89.90
76211;DHT22;65003;49.518;11.280;2023-04-01T00:28:28;9.80;90.00
76211;DHT22;65003;49.518;11.280;2023-04-01T00:30:54;9.80;90.00
76211;DHT22;65003;49.518;11.280;2023-04-01T00:33:21;9.90;90.00
76211;DHT22;65003;49.518;11.280;2023-04-01T00:35:47;9.80;89.70
76211;DHT22;65003;49.518;11.280;2023-04-01T00:38:15;9.90;89.70
76211;DHT22;65003;49.518;11.280;2023-04-01T00:40:42;9.90;89.40
76211;DHT22;65003;49.518;11.280;2023-04-01T00:43:13;9.90;89.00
76211;DHT22;65003;49.518;11.280;2023-04-01T00:45:40;10.00;89.20
76211;DHT22;65003;49.518;11.280;2023-04-01T00:48:07;10.00;89.00
76211;DHT22;65003;49.518;11.280;2023-04-01T00:50:33;10.00;88.80
76211;DHT22;65003;49.518;11.280;2023-04-01T00:52:59;10.10;88.60
76211;DHT22;65003;49.518;11.280;2023-04-01T00:55:27;10.00;88.60
76211;DHT22;65003;49.518;11.280;2023-04-01T00:57:53;10.10;87.90
76211;DHT22;65003;49.518;11.280;2023-04-01T01:00:20;10.10;87.80
76211;DHT22;65003;49.518;11.280;2023-04-01T01:02:47;10.00;87.90
76211;DHT22;65003;49.518;11.280;2023-04-01T01:05:14;10.10;87.40
76211;DHT22;65003;49.518;11.280;2023-04-01T01:10:19;10.10;88.10
76211;DHT22;65003;49.518;11.280;2023-04-01T01:15:44;10.20;87.30
76211;DHT22;65003;49.518;11.280;2023-04-01T01:26:29;10.10;87.40
76211;DHT22;65003;49.518;11.280;2023-04-01T01:29:22;10.00;87.70
76211;DHT22;65003;49.518;11.280;2023-04-01T01:35:11;10.20;86.50
76211;DHT22;65003;49.518;11.280;2023-04-01T01:37:34;10.20;86.50
76211;DHT22;65003;49.518;11.280;2023-04-01T01:40:04;10.30;86.50
76211;DHT22;65003;49.518;11.280;2023-04-01T01:42:29;10.30;86.10
76211;DHT22;65003;49.518;11.280;2023-04-01T01:44:55;10.20;86.00
76211;DHT22;65003;49.518;11.280;2023-04-01T01:47:22;10.20;86.40
76211;DHT22;65003;49.518;11.280;2023-04-01T01:49:48;10.20;86.20
76211;DHT22;65003;49.518;11.280;2023-04-01T01:52:16;10.20;85.80
76211;DHT22;65003;49.518;11.280;2023-04-01T01:54:50;10.20;86.10
76211;DHT22;65003;49.518;11.280;2023-04-01T01:57:16;10.20;85.90
76211;DHT22;65003;49.518;11.280;2023-04-01T01:59:42;10.20;85.70
76211;DHT22;65003;49.518;11.280;2023-04-01T02:02:09;10.20;85.70
76211;DHT22;65003;49.518;11.280;2023-04-01T02:04:37;10.30;85.80
76211;DHT22;65003;49.518;11.280;2023-04-01T02:07:03;10.20;85.80
76211;DHT22;65003;49.518;11.280;2023-04-01T02:09:30;10.20;85.70
76211;DHT22;65003;49.518;11.280;2023-04-01T02:11:58;10.20;86.70
76211;DHT22;65003;49.518;11.280;2023-04-01T02:14:25;10.10;86.10
76211;DHT22;65003;49.518;11.280;2023-04-01T02:16:55;10.10;86.00
76211;DHT22;65003;49.518;11.280;2023-04-01T02:19:21;10.10;86.50
76211;DHT22;65003;49.518;11.280;2023-04-01T02:21:49;10.10;85.80
76211;DHT22;65003;49.518;11.280;2023-04-01T02:24:14;10.10;85.70
76211;DHT22;65003;49.518;11.280;2023-04-01T02:26:40;10.10;85.90
76211;DHT22;65003;49.518;11.280;2023-04-01T02:29:07;10.10;85.70
76211;DHT22;65003;49.518;11.280;2023-04-01T02:31:34;10.10;85.70
76211;DHT22;65003;49.518;11.280;2023-04-01T02:34:00;10.10;85.70
76211;DHT22;65003;49.518;11.280;2023-04-01T02:36:27;10.10;86.00
76211;DHT22;65003;49.518;11.280;2023-04-01T02:38:54;10.20;85.50
76211;DHT22;65003;49.518;11.280;2023-04-01T02:41:21;10.20;85.50
76211;DHT22;65003;49.518;11.280;2023-04-01T02:43:48;10.20;85.50
76211;DHT22;65003;49.518;11.280;2023-04-01T02:46:15;10.20;85.30
76211;DHT22;65003;49.518;11.280;2023-04-01T02:48:41;10.30;85.10
76211;DHT22;65003;49.518;11.280;2023-04-01T02:51:08;10.30;85.30
76211;DHT22;65003;49.518;11.280;2023-04-01T02:53:35;10.30;84.50
76211;DHT22;65003;49.518;11.280;2023-04-01T02:56:01;10.30;84.70
76211;DHT22;65003;49.518;11.280;2023-04-01T02:58:28;10.30;84.40
76211;DHT22;65003;49.518;11.280;2023-04-01T03:00:55;10.30;84.70
76211;DHT22;65003;49.518;11.280;2023-04-01T03:03:21;10.20;84.60
76211;DHT22;65003;49.518;11.280;2023-04-01T03:05:48;10.20;84.80
76211;DHT22;65003;49.518;11.280;2023-04-01T03:08:15;9.70;84.60
76211;DHT22;65003;49.518;11.280;2023-04-01T03:10:41;10.30;85.10
76211;DHT22;65003;49.518;11.280;2023-04-01T03:13:09;10.20;84.40
76211;DHT22;65003;49.518;11.280;2023-04-01T03:15:35;10.20;84.80
76211;DHT22;65003;49.518;11.280;2023-04-01T03:18:02;10.20;84.90
76211;DHT22;65003;49.518;11.280;2023-04-01T03:20:29;10.20;84.70
76211;DHT22;65003;49.518;11.280;2023-04-01T03:22:55;10.20;84.80
76211;DHT22;65003;49.518;11.280;2023-04-01T03:25:22;10.20;84.50
76211;DHT22;65003;49.518;11.280;2023-04-01T03:27:48;10.30;84.50
76211;DHT22;65003;49.518;11.280;2023-04-01T03:30:15;9.90;84.10
76211;DHT22;65003;49.518;11.280;2023-04-01T03:32:42;10.30;84.40
76211;DHT22;65003;49.518;11.280;2023-04-01T03:35:08;10.20;84.50
76211;DHT22;65003;49.518;11.280;2023-04-01T03:37:35;10.20;84.40
76211;DHT22;65003;49.518;11.280;2023-04-01T03:40:02;10.10;84.60
76211;DHT22;65003;49.518;11.280;2023-04-01T03:42:29;9.80;85.10
76211;DHT22;65003;49.518;11.280;2023-04-01T03:44:55;10.10;85.10
76211;DHT22;65003;49.518;11.280;2023-04-01T03:47:22;10.10;85.40
76211;DHT22;65003;49.518;11.280;2023-04-01T03:49:49;10.10;84.80
76211;DHT22;65003;49.518;11.280;2023-04-01T03:52:15;10.10;84.60
76211;DHT22;65003;49.518;11.280;2023-04-01T03:54:42;10.10;85.20
76211;DHT22;65003;49.518;11.280;2023-04-01T03:57:08;10.10;85.10
76211;DHT22;65003;49.518;11.280;2023-04-01T03:59:35;10.10;84.70
76211;DHT22;65003;49.518;11.280;2023-04-01T04:02:02;10.10;85.00
76211;DHT22;65003;49.518;11.280;2023-04-01T04:04:29;10.10;84.60
76211;DHT22;65003;49.518;11.280;2023-04-01T04:06:56;10.00;84.90
76211;DHT22;65003;49.518;11.280;2023-04-01T04:09:23;10.00;85.40
76211;DHT22;65003;49.518;11.280;2023-04-01T04:11:49;10.00;85.50
76211;DHT22;65003;49.518;11.280;2023-04-01T04:14:16;10.00;85.10
76211;DHT22;65003;49.518;11.280;2023-04-01T04:16:42;9.90;85.20
76211;DHT22;65003;49.518;11.280;2023-04-01T04:19:09;10.00;85.20
76211;DHT22;65003;49.518;11.280;2023-04-01T04:21:35;9.90;85.40
76211;DHT22;65003;49.518;11.280;2023-04-01T04:24:02;10.00;85.30
76211;DHT22;65003;49.518;11.280;2023-04-01T04:26:29;10.00;85.10
76211;DHT22;65003;49.518;11.280;2023-04-01T04:28:56;9.90;85.40
76211;DHT22;65003;49.518;11.280;2023-04-01T04:31:23;9.90;85.10
76211;DHT22;65003;49.518;11.280;2023-04-01T04:33:49;9.90;85.10
76211;DHT22;65003;49.518;11.280;2023-04-01T04:36:16;9.90;85.00
76211;DHT22;65003;49.518;11.280;2023-04-01T04:38:42;10.20;84.90
76211;DHT22;65003;49.518;11.280;2023-04-01T04:41:09;9.90;84.80
76211;DHT22;65003;49.518;11.280;2023-04-01T04:43:35;10.00;84.50
76211;DHT22;65003;49.518;11.280;2023-04-01T04:46:05;9.90;84.20
76211;DHT22;65003;49.518;11.280;2023-04-01T04:48:31;10.00;84.30
76211;DHT22;65003;49.518;11.280;2023-04-01T04:50:57;10.00;84.20
76211;DHT22;65003;49.518;11.280;2023-04-01T04:53:24;10.00;84.20
76211;DHT22;65003;49.518;11.280;2023-04-01T04:55:50;10.00;83.90
76211;DHT22;65003;49.518;11.280;2023-04-01T04:58:17;10.00;83.90
76211;DHT22;65003;49.518;11.280;2023-04-01T05:00:44;9.70;84.20
76211;DHT22;65003;49.518;11.280;2023-04-01T05:03:10;10.00;84.20
76211;DHT22;65003;49.518;11.280;2023-04-01T05:05:38;9.90;85.20
76211;DHT22;65003;49.518;11.280;2023-04-01T05:08:04;10.00;85.40
76211;DHT22;65003;49.518;11.280;2023-04-01T05:10:31;10.00;85.30
76211;DHT22;65003;49.518;11.280;2023-04-01T05:12:58;9.90;85.80
76211;DHT22;65003;49.518;11.280;2023-04-01T05:15:24;9.90;85.30
76211;DHT22;65003;49.518;11.280;2023-04-01T05:17:51;9.90;85.70
76211;DHT22;65003;49.518;11.280;2023-04-01T05:20:17;9.90;86.10
76211;DHT22;65003;49.518;11.280;2023-04-01T05:22:44;10.00;86.00
76211;DHT22;65003;49.518;11.280;2023-04-01T05:25:10;10.00;85.90
76211;DHT22;65003;49.518;11.280;2023-04-01T05:27:37;10.00;85.90
76211;DHT22;65003;49.518;11.280;2023-04-01T05:30:05;10.00;86.40
76211;DHT22;65003;49.518;11.280;2023-04-01T05:32:31;10.00;86.40
76211;DHT22;65003;49.518;11.280;2023-04-01T05:34:58;10.00;86.40
76211;DHT22;65003;49.518;11.280;2023-04-01T05:37:25;10.00;86.40
76211;DHT22;65003;49.518;11.280;2023-04-01T05:39:51;10.00;86.70
76211;DHT22;65003;49.518;11.280;2023-04-01T05:42:18;10.00;86.60
76211;DHT22;65003;49.518;11.280;2023-04-01T05:44:44;10.00;86.40
76211;DHT22;65003;49.518;11.280;2023-04-01T05:47:11;10.00;86.40
76211;DHT22;65003;49.518;11.280;2023-04-01T05:49:37;10.00;86.00
76211;DHT22;65003;49.518;11.280;2023-04-01T05:52:04;10.00;86.20
76211;DHT22;65003;49.518;11.280;2023-04-01T05:54:31;10.00;85.90
76211;DHT22;65003;49.518;11.280;2023-04-01T05:56:57;10.00;85.80
76211;DHT22;65003;49.518;11.280;2023-04-01T05:59:24;10.00;85.70
76211;DHT22;65003;49.518;11.280;2023-04-01T06:01:50;10.00;85.80
76211;DHT22;65003;49.518;11.280;2023-04-01T06:04:17;10.10;85.80
76211;DHT22;65003;49.518;11.280;2023-04-01T06:06:44;10.10;85.50
76211;DHT22;65003;49.518;11.280;2023-04-01T06:09:14;10.10;85.40
76211;DHT22;65003;49.518;11.280;2023-04-01T06:11:51;10.10;85.60
76211;DHT22;65003;49.518;11.280;2023-04-01T06:14:19;10.10;85.10
76211;DHT22;65003;49.518;11.280;2023-04-01T06:16:58;10.10;84.90
76211;DHT22;65003;49.518;11.280;2023-04-01T06:19:27;10.20;88.00
76211;DHT22;65003;49.518;11.280;2023-04-01T06:22:22;10.30;86.70
76211;DHT22;65003;49.518;11.280;2023-04-01T06:25:10;10.50;85.40
76211;DHT22;65003;49.518;11.280;2023-04-01T06:27:54;10.70;84.30
76211;DHT22;65003;49.518;11.280;2023-04-01T06:30:35;10.70;84.00
76211;DHT22;65003;49.518;11.280;2023-04-01T06:33:30;10.90;83.20
76211;DHT22;65003;49.518;11.280;2023-04-01T06:36:08;10.90;83.10
76211;DHT22;65003;49.518;11.280;2023-04-01T06:38:40;10.90;82.50
76211;DHT22;65003;49.518;11.280;2023-04-01T06:41:14;10.90;82.30
76211;DHT22;65003;49.518;11.280;2023-04-01T06:43:43;10.90;82.20
76211;DHT22;65003;49.518;11.280;2023-04-01T06:46:10;10.90;82.20
76211;DHT22;65003;49.518;11.280;2023-04-01T06:48:38;10.90;81.90
76211;DHT22;65003;49.518;11.280;2023-04-01T06:51:12;10.90;82.40
76211;DHT22;65003;49.518;11.280;2023-04-01T06:53:43;10.90;83.40
76211;DHT22;65003;49.518;11.280;2023-04-01T06:56:07;11.00;82.10
76211;DHT22;65003;49.518;11.280;2023-04-01T06:58:49;11.00;82.00
76211;DHT22;65003;49.518;11.280;2023-04-01T07:01:16;11.10;81.60
76211;DHT22;65003;49.518;11.280;2023-04-01T07:03:47;11.30;80.70
76211;DHT22;65003;49.518;11.280;2023-04-01T07:06:24;11.40;79.50
76211;DHT22;65003;49.518;11.280;2023-04-01T07:08:47;11.50;80.10
76211;DHT22;65003;49.518;11.280;2023-04-01T07:11:19;11.60;78.60
76211;DHT22;65003;49.518;11.280;2023-04-01T07:13:45;11.80;77.90
76211;DHT22;65003;49.518;11.280;2023-04-01T07:16:17;11.90;77.30
76211;DHT22;65003;49.518;11.280;2023-04-01T07:18:52;12.40;77.00
76211;DHT22;65003;49.518;11.280;2023-04-01T07:24:05;12.10;75.10
76211;DHT22;65003;49.518;11.280;2023-04-01T07:26:31;11.90;75.40
76211;DHT22;65003;49.518;11.280;2023-04-01T07:28:57;11.80;75.40
76211;DHT22;65003;49.518;11.280;2023-04-01T07:34:03;11.60;75.90
76211;DHT22;65003;49.518;11.280;2023-04-01T07:39:09;11.70;75.70
76211;DHT22;65003;49.518;11.280;2023-04-01T07:41:51;11.70;75.40
76211;DHT22;65003;49.518;11.280;2023-04-01T07:44:27;11.70;75.30
76211;DHT22;65003;49.518;11.280;2023-04-01T07:47:03;11.90;75.60
76211;DHT22;65003;49.518;11.280;2023-04-01T07:49:42;11.80;74.20
76211;DHT22;65003;49.518;11.280;2023-04-01T07:52:24;11.80;74.00
76211;DHT22;65003;49.518;11.280;2023-04-01T07:54:49;11.80;74.10
76211;DHT22;65003;49.518;11.280;2023-04-01T08:00:04;11.80;73.90
76211;DHT22;65003;49.518;11.280;2023-04-01T08:02:34;11.80;73.60
76211;DHT22;65003;49.518;11.280;2023-04-01T08:05:07;11.80;74.40
76211;DHT22;65003;49.518;11.280;2023-04-01T08:07:41;11.80;74.70
76211;DHT22;65003;49.518;11.280;2023-04-01T08:10:30;11.80;74.80
76211;DHT22;65003;49.518;11.280;2023-04-01T08:13:04;12.10;74.80
76211;DHT22;65003;49.518;11.280;2023-04-01T08:15:28;11.90;74.20
76211;DHT22;65003;49.518;11.280;2023-04-01T08:18:05;11.90;73.90
76211;DHT22;65003;49.518;11.280;2023-04-01T08:20:34;11.90;73.60
76211;DHT22;65003;49.518;11.280;2023-04-01T08:25:52;11.70;74.40
76211;DHT22;65003;49.518;11.280;2023-04-01T08:28:19;11.60;74.10
76211;DHT22;65003;49.518;11.280;2023-04-01T08:30:56;11.60;74.40
76211;DHT22;65003;49.518;11.280;2023-04-01T08:33:25;11.50;73.90
76211;DHT22;65003;49.518;11.280;2023-04-01T08:36:14;11.50;74.80
76211;DHT22;65003;49.518;11.280;2023-04-01T08:38:55;11.50;74.70
76211;DHT22;65003;49.518;11.280;2023-04-01T08:41:42;11.40;74.70
76211;DHT22;65003;49.518;11.280;2023-04-01T08:44:11;11.40;75.20
76211;DHT22;65003;49.518;11.280;2023-04-01T08:46:48;11.40;75.20
76211;DHT22;65003;49.518;11.280;2023-04-01T08:49:25;11.40;74.20
76211;DHT22;65003;49.518;11.280;2023-04-01T08:52:11;11.40;74.70
76211;DHT22;65003;49.518;11.280;2023-04-01T08:55:27;11.30;75.00
76211;DHT22;65003;49.518;11.280;2023-04-01T08:57:40;11.30;75.00
76211;DHT22;65003;49.518;11.280;2023-04-01T09:00:23;11.30;75.30
76211;DHT22;65003;49.518;11.280;2023-04-01T09:05:43;11.40;74.40
76211;DHT22;65003;49.518;11.280;2023-04-01T09:10:55;11.30;75.10
76211;DHT22;65003;49.518;11.280;2023-04-01T09:13:38;11.30;73.80
76211;DHT22;65003;49.518;11.280;2023-04-01T09:16:10;11.30;74.10
76211;DHT22;65003;49.518;11.280;2023-04-01T09:18:45;11.20;74.50
76211;DHT22;65003;49.518;11.280;2023-04-01T09:21:17;11.20;74.40
76211;DHT22;65003;49.518;11.280;2023-04-01T09:24:13;11.40;74.80
76211;DHT22;65003;49.518;11.280;2023-04-01T09:26:44;11.50;75.00
76211;DHT22;65003;49.518;11.280;2023-04-01T09:29:27;11.50;74.20
76211;DHT22;65003;49.518;11.280;2023-04-01T09:32:33;11.50;74.50
76211;DHT22;65003;49.518;11.280;2023-04-01T09:35:02;11.50;74.20
76211;DHT22;65003;49.518;11.280;2023-04-01T09:40:42;11.50;74.50
76211;DHT22;65003;49.518;11.280;2023-04-01T09:45:48;11.60;74.70
76211;DHT22;65003;49.518;11.280;2023-04-01T09:50:49;11.70;75.00
76211;DHT22;65003;49.518;11.280;2023-04-01T09:53:36;11.80;76.10
76211;DHT22;65003;49.518;11.280;2023-04-01T09:56:19;11.80;77.60
76211;DHT22;65003;49.518;11.280;2023-04-01T10:01:46;11.70;78.30
76211;DHT22;65003;49.518;11.280;2023-04-01T10:04:22;11.70;79.30
76211;DHT22;65003;49.518;11.280;2023-04-01T10:06:51;11.60;79.40
76211;DHT22;65003;49.518;11.280;2023-04-01T10:09:23;11.50;79.40
76211;DHT22;65003;49.518;11.280;2023-04-01T10:14:42;11.40;81.70
76211;DHT22;65003;49.518;11.280;2023-04-01T10:17:29;11.50;81.70
76211;DHT22;65003;49.518;11.280;2023-04-01T10:25:47;11.30;84.40
76211;DHT22;65003;49.518;11.280;2023-04-01T10:28:29;11.40;84.50
76211;DHT22;65003;49.518;11.280;2023-04-01T10:31:10;11.40;85.20
76211;DHT22;65003;49.518;11.280;2023-04-01T10:36:35;11.20;83.60
76211;DHT22;65003;49.518;11.280;2023-04-01T10:39:55;11.20;82.90
76211;DHT22;65003;49.518;11.280;2023-04-01T10:42:26;11.10;84.20
76211;DHT22;65003;49.518;11.280;2023-04-01T10:45:27;10.70;83.00
76211;DHT22;65003;49.518;11.280;2023-04-01T10:47:48;11.10;83.00
76211;DHT22;65003;49.518;11.280;2023-04-01T10:50:29;11.10;85.10
76211;DHT22;65003;49.518;11.280;2023-04-01T10:53:00;11.10;85.70
76211;DHT22;65003;49.518;11.280;2023-04-01T10:58:20;11.10;86.20
76211;DHT22;65003;49.518;11.280;2023-04-01T11:00:56;11.20;86.10
76211;DHT22;65003;49.518;11.280;2023-04-01T11:06:02;11.30;86.80
76211;DHT22;65003;49.518;11.280;2023-04-01T11:08:38;11.40;87.20
76211;DHT22;65003;49.518;11.280;2023-04-01T11:25:29;11.10;90.10
76211;DHT22;65003;49.518;11.280;2023-04-01T11:28:07;11.00;90.40
76211;DHT22;65003;49.518;11.280;2023-04-01T11:30:48;11.00;91.00
76211;DHT22;65003;49.518;11.280;2023-04-01T11:33:13;10.90;91.00
76211;DHT22;65003;49.518;11.280;2023-04-01T11:35:54;10.90;91.10
76211;DHT22;65003;49.518;11.280;2023-04-01T11:41:26;10.90;91.20
76211;DHT22;65003;49.518;11.280;2023-04-01T11:44:10;10.90;92.00
76211;DHT22;65003;49.518;11.280;2023-04-01T11:46:43;10.80;91.60
76211;DHT22;65003;49.518;11.280;2023-04-01T11:54:49;10.80;92.20
76211;DHT22;65003;49.518;11.280;2023-04-01T11:57:23;10.70;92.00
76211;DHT22;65003;49.518;11.280;2023-04-01T11:59:47;10.70;92.40
76211;DHT22;65003;49.518;11.280;2023-04-01T12:02:19;10.70;92.70
76211;DHT22;65003;49.518;11.280;2023-04-01T12:05:33;10.70;92.30
76211;DHT22;65003;49.518;11.280;2023-04-01T12:08:23;10.60;92.70
76211;DHT22;65003;49.518;11.280;2023-04-01T12:10:56;10.60;92.90
76211;DHT22;65003;49.518;11.280;2023-04-01T12:13:59;10.70;92.70
76211;DHT22;65003;49.518;11.280;2023-04-01T12:16:26;10.80;92.50
76211;DHT22;65003;49.518;11.280;2023-04-01T12:18:58;10.80;92.30
76211;DHT22;65003;49.518;11.280;2023-04-01T12:24:19;11.00;92.30
76211;DHT22;65003;49.518;11.280;2023-04-01T12:26:43;11.10;91.90
76211;DHT22;65003;49.518;11.280;2023-04-01T12:34:28;11.00;91.80
76211;DHT22;65003;49.518;11.280;2023-04-01T12:37:03;11.40;91.90
76211;DHT22;65003;49.518;11.280;2023-04-01T12:39:51;11.00;91.90
76211;DHT22;65003;49.518;11.280;2023-04-01T12:45:19;11.10;91.50
76211;DHT22;65003;49.518;11.280;2023-04-01T12:47:50;11.10;91.30
76211;DHT22;65003;49.518;11.280;2023-04-01T12:50:23;11.10;91.60
76211;DHT22;65003;49.518;11.280;2023-04-01T12:52:52;11.10;91.00
76211;DHT22;65003;49.518;11.280;2023-04-01T12:55:28;11.10;91.30
76211;DHT22;65003;49.518;11.280;2023-04-01T13:00:58;11.10;90.70
76211;DHT22;65003;49.518;11.280;2023-04-01T13:06:19;10.90;92.00
76211;DHT22;65003;49.518;11.280;2023-04-01T13:09:05;10.80;91.70
76211;DHT22;65003;49.518;11.280;2023-04-01T13:11:48;10.80;92.30
76211;DHT22;65003;49.518;11.280;2023-04-01T13:17:00;11.00;92.10
76211;DHT22;65003;49.518;11.280;2023-04-01T13:22:09;11.00;92.10
76211;DHT22;65003;49.518;11.280;2023-04-01T13:24:51;11.10;91.90
76211;DHT22;65003;49.518;11.280;2023-04-01T13:27:26;11.10;91.60
76211;DHT22;65003;49.518;11.280;2023-04-01T13:30:18;11.10;91.70
76211;DHT22;65003;49.518;11.280;2023-04-01T13:33:01;11.10;91.70
76211;DHT22;65003;49.518;11.280;2023-04-01T13:36:36;11.10;92.30
76211;DHT22;65003;49.518;11.280;2023-04-01T13:38:28;11.20;92.00
76211;DHT22;65003;49.518;11.280;2023-04-01T13:41:11;11.20;91.70
76211;DHT22;65003;49.518;11.280;2023-04-01T13:43:39;11.20;91.70
76211;DHT22;65003;49.518;11.280;2023-04-01T13:46:22;11.20;91.30
76211;DHT22;65003;49.518;11.280;2023-04-01T13:51:49;11.20;91.70
76211;DHT22;65003;49.518;11.280;2023-04-01T13:54:22;11.20;91.60
76211;DHT22;65003;49.518;11.280;2023-04-01T13:59:40;11.10;91.50
76211;DHT22;65003;49.518;11.280;2023-04-01T14:02:18;11.10;91.30
76211;DHT22;65003;49.518;11.280;2023-04-01T14:12:58;11.00;92.00
76211;DHT22;65003;49.518;11.280;2023-04-01T14:15:41;10.90;91.50
76211;DHT22;65003;49.518;11.280;2023-04-01T14:18:13;10.80;91.80
76211;DHT22;65003;49.518;11.280;2023-04-01T14:20:39;10.80;92.40
76211;DHT22;65003;49.518;11.280;2023-04-01T14:23:19;10.80;92.50
76211;DHT22;65003;49.518;11.280;2023-04-01T14:25:52;10.80;92.40
76211;DHT22;65003;49.518;11.280;2023-04-01T14:28:25;10.80;92.10
76211;DHT22;65003;49.518;11.280;2023-04-01T14:31:10;10.80;92.30
76211;DHT22;65003;49.518;11.280;2023-04-01T14:37:13;10.80;92.20
76211;DHT22;65003;49.518;11.280;2023-04-01T14:38:54;10.80;91.80
76211;DHT22;65003;49.518;11.280;2023-04-01T14:44:13;10.70;92.00
76211;DHT22;65003;49.518;11.280;2023-04-01T14:46:50;10.70;91.70
76211;DHT22;65003;49.518;11.280;2023-04-01T14:49:20;10.70;91.90
76211;DHT22;65003;49.518;11.280;2023-04-01T14:51:44;10.70;91.50
76211;DHT22;65003;49.518;11.280;2023-04-01T14:54:22;10.70;91.70
76211;DHT22;65003;49.518;11.280;2023-04-01T14:59:27;10.60;91.80
76211;DHT22;65003;49.518;11.280;2023-04-01T15:02:03;10.60;91.30
76211;DHT22;65003;49.518;11.280;2023-04-01T15:04:50;10.50;91.90
76211;DHT22;65003;49.518;11.280;2023-04-01T15:07:31;10.40;92.00
76211;DHT22;65003;49.518;11.280;2023-04-01T15:10:01;10.50;92.40
76211;DHT22;65003;49.518;11.280;2023-04-01T15:12:29;10.50;92.40
76211;DHT22;65003;49.518;11.280;2023-04-01T15:15:04;10.50;92.50
76211;DHT22;65003;49.518;11.280;2023-04-01T15:20:49;10.50;92.00
76211;DHT22;65003;49.518;11.280;2023-04-01T15:23:23;10.50;92.20
76211;DHT22;65003;49.518;11.280;2023-04-01T15:31:16;10.30;92.90
76211;DHT22;65003;49.518;11.280;2023-04-01T15:33:49;10.30;92.80
76211;DHT22;65003;49.518;11.280;2023-04-01T15:40:03;10.30;92.70
76211;DHT22;65003;49.518;11.280;2023-04-01T15:41:43;10.40;92.60
76211;DHT22;65003;49.518;11.280;2023-04-01T15:44:33;10.40;92.40
76211;DHT22;65003;49.518;11.280;2023-04-01T15:46:54;10.50;92.20
76211;DHT22;65003;49.518;11.280;2023-04-01T15:55:09;10.50;92.30
76211;DHT22;65003;49.518;11.280;2023-04-01T15:57:41;10.50;92.40
76211;DHT22;65003;49.518;11.280;2023-04-01T16:00:25;10.50;92.20
76211;DHT22;65003;49.518;11.280;2023-04-01T16:03:48;10.50;92.20
76211;DHT22;65003;49.518;11.280;2023-04-01T16:08:52;10.40;92.40
76211;DHT22;65003;49.518;11.280;2023-04-01T16:11:18;10.30;92.20
76211;DHT22;65003;49.518;11.280;2023-04-01T16:14:05;10.30;92.20
76211;DHT22;65003;49.518;11.280;2023-04-01T16:21:40;10.30;92.60
76211;DHT22;65003;49.518;11.280;2023-04-01T16:24:14;10.30;92.60
76211;DHT22;65003;49.518;11.280;2023-04-01T16:26:59;10.30;92.60
76211;DHT22;65003;49.518;11.280;2023-04-01T16:29:32;10.30;92.40
76211;DHT22;65003;49.518;11.280;2023-04-01T16:34:36;10.20;92.50
76211;DHT22;65003;49.518;11.280;2023-04-01T16:37:07;10.10;93.10
76211;DHT22;65003;49.518;11.280;2023-04-01T16:39:49;10.10;93.20
76211;DHT22;65003;49.518;11.280;2023-04-01T16:42:39;10.10;92.90
76211;DHT22;65003;49.518;11.280;2023-04-01T16:45:19;10.10;93.00
76211;DHT22;65003;49.518;11.280;2023-04-01T16:47:49;10.10;93.30
76211;DHT22;65003;49.518;11.280;2023-04-01T16:52:59;10.00;93.50
76211;DHT22;65003;49.518;11.280;2023-04-01T16:55:24;10.10;93.60
76211;DHT22;65003;49.518;11.280;2023-04-01T16:57:52;10.00;93.30
76211;DHT22;65003;49.518;11.280;2023-04-01T17:00:22;10.00;93.20
76211;DHT22;65003;49.518;11.280;2023-04-01T17:03:03;10.00;93.40
76211;DHT22;65003;49.518;11.280;2023-04-01T17:05:52;10.00;93.10
76211;DHT22;65003;49.518;11.280;2023-04-01T17:08:30;10.00;93.10
76211;DHT22;65003;49.518;11.280;2023-04-01T17:11:00;10.00;93.20
76211;DHT22;65003;49.518;11.280;2023-04-01T17:13:46;10.00;93.00
76211;DHT22;65003;49.518;11.280;2023-04-01T17:21:57;10.00;93.10
76211;DHT22;65003;49.518;11.280;2023-04-01T17:24:38;9.90;93.40
76211;DHT22;65003;49.518;11.280;2023-04-01T17:27:13;9.90;93.40
76211;DHT22;65003;49.518;11.280;2023-04-01T17:29:44;9.80;92.90
76211;DHT22;65003;49.518;11.280;2023-04-01T17:32:11;9.80;93.50
76211;DHT22;65003;49.518;11.280;2023-04-01T17:34:57;9.90;93.30
76211;DHT22;65003;49.518;11.280;2023-04-01T17:37:31;9.90;93.30
76211;DHT22;65003;49.518;11.280;2023-04-01T17:40:06;9.90;93.50
76211;DHT22;65003;49.518;11.280;2023-04-01T17:42:40;9.80;93.30
76211;DHT22;65003;49.518;11.280;2023-04-01T17:47:49;9.80;93.50
76211;DHT22;65003;49.518;11.280;2023-04-01T17:50:23;9.80;93.30
76211;DHT22;65003;49.518;11.280;2023-04-01T17:53:02;9.80;93.30
76211;DHT22;65003;49.518;11.280;2023-04-01T17:55:32;9.80;93.20
76211;DHT22;65003;49.518;11.280;2023-04-01T17:58:17;9.80;93.50
76211;DHT22;65003;49.518;11.280;2023-04-01T18:01:07;9.80;93.50
76211;DHT22;65003;49.518;11.280;2023-04-01T18:06:38;9.80;93.30
76211;DHT22;65003;49.518;11.280;2023-04-01T18:09:22;9.80;93.30
76211;DHT22;65003;49.518;11.280;2023-04-01T18:12:07;9.90;93.30
76211;DHT22;65003;49.518;11.280;2023-04-01T18:14:49;9.80;93.10
76211;DHT22;65003;49.518;11.280;2023-04-01T18:17:31;10.10;93.20
76211;DHT22;65003;49.518;11.280;2023-04-01T18:20:07;9.80;93.00
76211;DHT22;65003;49.518;11.280;2023-04-01T18:22:39;9.80;93.10
76211;DHT22;65003;49.518;11.280;2023-04-01T18:25:15;9.90;93.30
76211;DHT22;65003;49.518;11.280;2023-04-01T18:27:41;9.90;93.10
76211;DHT22;65003;49.518;11.280;2023-04-01T18:33:03;10.00;92.80
76211;DHT22;65003;49.518;11.280;2023-04-01T18:38:28;9.90;92.50
76211;DHT22;65003;49.518;11.280;2023-04-01T18:40:58;9.80;92.80
76211;DHT22;65003;49.518;11.280;2023-04-01T18:43:39;9.80;93.00
76211;DHT22;65003;49.518;11.280;2023-04-01T18:46:06;9.90;92.70
76211;DHT22;65003;49.518;11.280;2023-04-01T18:48:48;10.00;92.60